Time;durP1;ratioP1;P1;durP2;ratioP2;P2;SDS_P1;SDS_P2;PMS_P1;PMS_P2;Temp;Humidity;BMP_temperature;BMP_pressure;BME280_temperature;BME280_humidity;BME280_pressure;Samples;Min_cycle;Max_cycle;Signal;HPM_P1;HPM_P2
2022/09/18 00:01:55;;;;;;;9.90;1.80;;;9.30;99.90;;;;;;4986213;28;20053;-82
2022/09/18 00:04:20;;;;;;;7.38;1.90;;;9.40;99.90;;;;;;4989591;28;20026;-84
2022/09/18 00:06:46;;;;;;;5.72;1.83;;;9.40;99.90;;;;;;4966522;28;20537;-84
2022/09/18 00:09:13;;;;;;;7.85;1.60;;;9.40;99.90;;;;;;4968438;28;20078;-83
2022/09/18 00:11:45;;;;;;;11.05;1.83;;;9.40;99.90;;;;;;4976298;28;20054;-83
2022/09/18 00:14:14;;;;;;;9.25;2.38;;;9.40;99.90;;;;;;4978905;28;20093;-83
2022/09/18 00:16:40;;;;;;;12.90;1.98;;;9.50;99.90;;;;;;4981449;28;20122;-84
2022/09/18 00:19:06;;;;;;;9.55;1.95;;;9.50;99.90;;;;;;4985085;28;20069;-83
2022/09/18 00:21:36;;;;;;;10.25;2.00;;;9.50;99.90;;;;;;4969164;28;20112;-84
2022/09/18 00:24:03;;;;;;;10.65;2.13;;;9.60;99.90;;;;;;5007321;28;20049;-84
2022/09/18 00:26:29;;;;;;;11.90;1.95;;;9.60;99.90;;;;;;4979846;28;20192;-85
2022/09/18 00:28:57;;;;;;;14.50;1.83;;;9.70;99.90;;;;;;4969739;28;20179;-86
2022/09/18 00:31:28;;;;;;;9.52;1.90;;;9.70;99.90;;;;;;5007543;28;20041;-84
2022/09/18 00:33:54;;;;;;;8.05;1.60;;;9.70;99.90;;;;;;5003271;28;20038;-85
2022/09/18 00:36:20;;;;;;;11.10;2.15;;;9.80;99.90;;;;;;4971468;28;20046;-84
2022/09/18 00:38:50;;;;;;;8.93;1.95;;;9.90;99.90;;;;;;4983431;28;20049;-84
2022/09/18 00:41:23;;;;;;;9.40;1.65;;;9.80;99.90;;;;;;5007668;28;20096;-84
2022/09/18 00:43:49;;;;;;;13.38;2.22;;;9.90;99.90;;;;;;4972363;28;20046;-83
2022/09/18 00:46:31;;;;;;;6.88;2.10;;;9.80;99.90;;;;;;4971971;28;20050;-84
2022/09/18 00:49:21;;;;;;;7.03;2.08;;;9.80;99.90;;;;;;4980904;28;20111;-83
2022/09/18 00:51:50;;;;;;;15.75;2.03;;;9.80;99.90;;;;;;4963813;28;20038;-83
2022/09/18 00:54:35;;;;;;;6.53;2.72;;;9.80;99.90;;;;;;4982296;28;20117;-84
2022/09/18 00:57:10;;;;;;;8.40;1.75;;;9.80;99.90;;;;;;5008375;28;20053;-84
2022/09/18 00:59:39;;;;;;;6.22;1.83;;;9.70;99.90;;;;;;5007593;28;20070;-83
2022/09/18 01:02:08;;;;;;;8.48;1.85;;;9.80;99.90;;;;;;4991018;28;20054;-84
2022/09/18 01:04:34;;;;;;;12.05;2.22;;;9.80;99.90;;;;;;4994856;28;20042;-83
2022/09/18 01:07:05;;;;;;;10.98;1.70;;;9.90;99.90;;;;;;4996424;28;20525;-85
2022/09/18 01:09:47;;;;;;;9.02;1.95;;;9.90;99.90;;;;;;4977624;28;20049;-84
2022/09/18 01:12:27;;;;;;;6.70;1.75;;;9.80;99.90;;;;;;5001024;28;20042;-84
2022/09/18 01:15:19;;;;;;;9.60;1.80;;;9.80;99.90;;;;;;4974275;28;20457;-83
2022/09/18 01:18:13;;;;;;;4.65;1.73;;;9.90;99.90;;;;;;4987019;28;20379;-84
2022/09/18 01:20:46;;;;;;;7.90;2.60;;;9.90;99.90;;;;;;4983672;28;20402;-84
2022/09/18 01:23:21;;;;;;;9.80;1.73;;;9.80;99.90;;;;;;4982710;28;20666;-83
2022/09/18 01:26:21;;;;;;;10.38;2.00;;;9.70;99.90;;;;;;4983732;28;20073;-84
2022/09/18 01:28:55;;;;;;;5.70;1.73;;;9.70;99.90;;;;;;4983360;28;20049;-84
2022/09/18 01:31:43;;;;;;;13.35;2.25;;;9.70;99.90;;;;;;4969641;28;20095;-83
2022/09/18 01:34:22;;;;;;;8.77;1.92;;;9.70;99.90;;;;;;4989829;28;20555;-82
2022/09/18 01:36:54;;;;;;;9.95;2.08;;;9.70;99.90;;;;;;4966451;28;20517;-83
2022/09/18 01:39:30;;;;;;;7.40;1.90;;;9.60;99.90;;;;;;4965832;28;20042;-83
2022/09/18 01:41:59;;;;;;;10.40;2.25;;;9.70;99.90;;;;;;4967282;28;20045;-83
2022/09/18 01:44:30;;;;;;;10.95;1.90;;;9.70;99.90;;;;;;4989344;28;20035;-84
2022/09/18 01:46:59;;;;;;;16.95;2.70;;;9.70;99.90;;;;;;4979957;28;20133;-84
2022/09/18 01:49:31;;;;;;;11.65;2.25;;;9.80;99.90;;;;;;4963619;28;20359;-84
2022/09/18 01:52:07;;;;;;;9.35;2.00;;;9.70;99.90;;;;;;5009887;28;20076;-84
2022/09/18 01:54:37;;;;;;;11.27;2.40;;;9.90;99.90;;;;;;4988612;28;20169;-83
2022/09/18 01:57:38;;;;;;;7.57;1.85;;;9.80;99.90;;;;;;4979373;28;20449;-84
2022/09/18 02:00:12;;;;;;;9.25;2.25;;;9.90;99.90;;;;;;4985525;28;20046;-84
2022/09/18 02:02:56;;;;;;;14.52;2.28;;;10.00;99.90;;;;;;4961815;28;20061;-83
2022/09/18 02:05:30;;;;;;;12.93;2.40;;;9.90;99.90;;;;;;4983306;28;20424;-84
2022/09/18 02:08:10;;;;;;;9.15;1.98;;;10.00;99.90;;;;;;4970404;28;20048;-84
2022/09/18 02:10:41;;;;;;;9.95;1.85;;;10.00;99.90;;;;;;4992190;28;20058;-83
2022/09/18 02:13:12;;;;;;;11.55;2.13;;;10.10;99.90;;;;;;4979885;28;20113;-84
2022/09/18 02:15:40;;;;;;;11.50;1.80;;;9.90;99.90;;;;;;4985627;28;20080;-83
2022/09/18 02:18:11;;;;;;;10.43;2.40;;;10.10;99.90;;;;;;4960734;28;20558;-84
2022/09/18 02:20:41;;;;;;;11.32;2.17;;;10.10;99.90;;;;;;4970937;28;20804;-84
2022/09/18 02:23:07;;;;;;;12.73;3.10;;;10.00;99.90;;;;;;4983002;28;20347;-84
2022/09/18 02:26:05;;;;;;;14.27;2.38;;;10.00;99.90;;;;;;4963016;28;20141;-84
2022/09/18 02:28:33;;;;;;;10.20;2.00;;;10.00;99.90;;;;;;4979337;28;20043;-84
2022/09/18 02:30:59;;;;;;;11.40;1.90;;;10.10;99.90;;;;;;4994348;28;20113;-84
2022/09/18 02:33:35;;;;;;;11.57;2.50;;;10.10;99.90;;;;;;4981215;28;20046;-84
2022/09/18 02:36:31;;;;;;;13.05;2.40;;;10.10;99.90;;;;;;4976627;28;20616;-84
2022/09/18 02:39:37;;;;;;;11.43;2.17;;;10.20;99.90;;;;;;4980294;28;20482;-84
2022/09/18 02:42:11;;;;;;;15.00;2.25;;;10.20;99.90;;;;;;4984772;28;20035;-85
2022/09/18 02:45:03;;;;;;;10.27;2.53;;;10.10;99.90;;;;;;4977868;28;20045;-85
2022/09/18 02:47:52;;;;;;;10.48;1.90;;;10.20;99.90;;;;;;4979067;28;20251;-84
2022/09/18 02:50:30;;;;;;;8.80;2.08;;;10.30;99.90;;;;;;5005510;28;20481;-84
2022/09/18 02:53:09;;;;;;;6.05;1.80;;;10.30;99.90;;;;;;4981431;28;20069;-85
2022/09/18 02:55:57;;;;;;;16.02;2.40;;;10.30;99.90;;;;;;4989305;28;20560;-90
2022/09/18 02:58:45;;;;;;;9.30;1.80;;;10.30;99.90;;;;;;4966580;28;20517;-89
2022/09/18 03:01:13;;;;;;;10.23;1.83;;;10.30;99.90;;;;;;4976580;28;20050;-90
2022/09/18 03:03:38;;;;;;;8.23;1.75;;;10.30;99.90;;;;;;4969029;28;20049;-90
2022/09/18 03:06:05;;;;;;;8.93;1.90;;;10.40;99.90;;;;;;4971440;28;20042;-90
2022/09/18 03:08:31;;;;;;;9.60;1.90;;;10.40;99.90;;;;;;4969721;28;20034;-91
2022/09/18 03:10:57;;;;;;;11.45;2.38;;;10.40;99.90;;;;;;4969284;28;20125;-91
2022/09/18 03:13:22;;;;;;;7.10;1.80;;;10.40;99.90;;;;;;4988232;28;20046;-90
2022/09/18 03:15:48;;;;;;;11.20;1.77;;;10.40;99.90;;;;;;4965281;28;20134;-91
2022/09/18 03:18:14;;;;;;;10.00;1.83;;;10.50;99.90;;;;;;4967913;28;20568;-92
2022/09/18 03:20:41;;;;;;;9.55;2.05;;;10.40;99.90;;;;;;4996979;28;20045;-91
2022/09/18 03:23:08;;;;;;;10.80;1.80;;;10.50;99.90;;;;;;4970612;28;20061;-92
2022/09/18 03:25:34;;;;;;;6.60;1.70;;;10.40;99.90;;;;;;4984733;28;20060;-91
2022/09/18 03:28:00;;;;;;;6.68;1.63;;;10.50;99.90;;;;;;4991123;28;20042;-91
2022/09/18 03:30:26;;;;;;;11.48;2.05;;;10.50;99.90;;;;;;4966759;28;20117;-90
2022/09/18 03:32:52;;;;;;;6.63;1.60;;;10.50;99.90;;;;;;4982925;28;20049;-88
2022/09/18 03:35:18;;;;;;;8.73;1.55;;;10.70;99.90;;;;;;4966224;28;20050;-88
2022/09/18 03:37:44;;;;;;;7.05;1.45;;;10.70;99.90;;;;;;4992489;28;20320;-92
2022/09/18 03:40:15;;;;;;;7.32;1.10;;;10.60;99.90;;;;;;4971637;28;20053;-91
2022/09/18 03:42:44;;;;;;;7.78;1.90;;;10.60;99.90;;;;;;4970542;28;20089;-91
2022/09/18 03:45:11;;;;;;;8.52;1.70;;;10.70;99.90;;;;;;4970707;28;20038;-90
2022/09/18 03:47:37;;;;;;;8.32;1.67;;;10.50;99.90;;;;;;4972423;28;20145;-90
2022/09/18 03:50:07;;;;;;;8.57;1.70;;;10.50;99.90;;;;;;4975663;28;20155;-93
2022/09/18 03:52:33;;;;;;;10.25;1.65;;;10.50;99.90;;;;;;4971918;28;20069;-91
2022/09/18 03:54:59;;;;;;;8.30;1.67;;;10.50;99.90;;;;;;4970942;28;20471;-91
2022/09/18 03:57:24;;;;;;;6.32;1.60;;;10.60;99.90;;;;;;4975129;28;20069;-91
2022/09/18 03:59:50;;;;;;;7.78;1.77;;;10.60;99.90;;;;;;4969762;28;20851;-90
2022/09/18 04:02:16;;;;;;;6.45;1.50;;;10.50;99.90;;;;;;4970877;28;20038;-89
2022/09/18 04:04:41;;;;;;;6.85;1.60;;;10.50;99.90;;;;;;4988087;28;20038;-90
2022/09/18 04:07:07;;;;;;;7.35;1.40;;;10.40;99.90;;;;;;5016098;28;20035;-91
2022/09/18 04:09:36;;;;;;;7.35;1.33;;;10.50;99.90;;;;;;4973933;28;20498;-91
2022/09/18 04:12:02;;;;;;;8.95;1.83;;;10.40;99.90;;;;;;4973977;28;20033;-91
2022/09/18 04:14:27;;;;;;;5.55;1.45;;;10.40;99.90;;;;;;4973446;28;20125;-91
2022/09/18 04:16:53;;;;;;;7.80;1.50;;;10.50;99.90;;;;;;4978374;28;20049;-91
2022/09/18 04:19:19;;;;;;;7.93;1.35;;;10.50;99.90;;;;;;4968956;28;20486;-90
2022/09/18 04:21:44;;;;;;;5.03;1.60;;;10.40;99.90;;;;;;4970678;28;20159;-91
2022/09/18 04:24:10;;;;;;;6.18;1.40;;;10.50;99.90;;;;;;4967948;28;20051;-89
2022/09/18 04:26:36;;;;;;;6.95;1.67;;;10.40;99.90;;;;;;4995867;28;20069;-88
2022/09/18 04:29:02;;;;;;;7.55;1.83;;;10.50;99.90;;;;;;4973775;28;20030;-91
2022/09/18 04:31:28;;;;;;;7.38;1.60;;;10.50;99.90;;;;;;4971441;28;20037;-91
2022/09/18 04:33:54;;;;;;;9.32;1.80;;;10.40;99.90;;;;;;4971038;28;20034;-91
2022/09/18 04:36:19;;;;;;;6.50;1.50;;;10.40;99.90;;;;;;4970430;28;20112;-92
2022/09/18 04:38:45;;;;;;;5.03;1.30;;;10.50;99.90;;;;;;4971761;28;20050;-91
2022/09/18 04:41:11;;;;;;;7.47;1.27;;;10.50;99.90;;;;;;4971266;28;20046;-91
2022/09/18 04:43:36;;;;;;;5.70;1.67;;;10.40;99.90;;;;;;4972751;28;20038;-91
2022/09/18 04:46:02;;;;;;;6.95;1.55;;;10.50;99.90;;;;;;4969729;28;20034;-91
2022/09/18 04:48:29;;;;;;;5.88;1.42;;;10.40;99.90;;;;;;4969102;28;20037;-91
2022/09/18 04:50:54;;;;;;;7.60;1.50;;;10.40;99.90;;;;;;4967249;28;20449;-92
2022/09/18 04:53:20;;;;;;;8.32;1.58;;;10.50;99.90;;;;;;4967220;28;20066;-92
2022/09/18 04:55:49;;;;;;;8.10;1.42;;;10.50;99.90;;;;;;4972753;28;20042;-91
2022/09/18 04:58:16;;;;;;;8.93;1.48;;;10.40;99.90;;;;;;4972863;28;20046;-92
2022/09/18 05:00:42;;;;;;;5.45;1.52;;;10.50;99.90;;;;;;4969745;28;20046;-92
2022/09/18 05:03:08;;;;;;;7.63;1.98;;;10.40;99.90;;;;;;4968798;28;20539;-91
2022/09/18 05:05:34;;;;;;;5.53;1.40;;;10.50;99.90;;;;;;5010756;28;20141;-90
2022/09/18 05:08:02;;;;;;;8.48;1.50;;;10.50;99.90;;;;;;4968193;28;20447;-89
2022/09/18 05:10:27;;;;;;;6.30;1.42;;;10.50;99.90;;;;;;4988027;28;20427;-91
2022/09/18 05:12:53;;;;;;;7.38;1.42;;;10.50;99.90;;;;;;4968806;28;20164;-92
2022/09/18 05:15:22;;;;;;;5.95;1.42;;;10.60;99.90;;;;;;4970663;28;20046;-90
2022/09/18 05:17:48;;;;;;;10.02;1.42;;;10.50;99.90;;;;;;4973040;28;20061;-90
2022/09/18 05:20:14;;;;;;;12.50;1.58;;;10.50;99.90;;;;;;4965876;28;20446;-91
2022/09/18 05:22:46;;;;;;;5.68;1.23;;;10.60;99.90;;;;;;5011066;28;20046;-90
2022/09/18 05:25:12;;;;;;;7.28;1.60;;;10.50;99.90;;;;;;4994947;28;20051;-91
2022/09/18 05:27:38;;;;;;;7.68;1.42;;;10.60;99.90;;;;;;4971487;28;20056;-89
2022/09/18 05:30:04;;;;;;;4.50;1.20;;;10.60;99.90;;;;;;5009673;28;20297;-89
2022/09/18 05:32:30;;;;;;;6.28;1.33;;;10.70;99.90;;;;;;5011270;28;20486;-88
2022/09/18 05:34:57;;;;;;;7.35;1.50;;;10.80;99.90;;;;;;4965530;28;20073;-90
2022/09/18 05:37:23;;;;;;;7.07;1.13;;;10.80;99.90;;;;;;4966169;28;20042;-92
2022/09/18 05:39:49;;;;;;;5.68;1.38;;;10.90;99.90;;;;;;4973425;28;20420;-89
2022/09/18 05:42:17;;;;;;;3.90;1.00;;;10.80;99.90;;;;;;4968251;28;20492;-91
2022/09/18 05:44:42;;;;;;;4.22;1.00;;;10.90;99.90;;;;;;4969606;28;20090;-91
2022/09/18 05:47:08;;;;;;;6.90;1.42;;;10.90;99.90;;;;;;4968568;28;20049;-92
2022/09/18 05:49:34;;;;;;;7.35;1.00;;;10.80;99.90;;;;;;4971878;28;20034;-90
2022/09/18 05:52:00;;;;;;;5.28;1.92;;;10.80;99.90;;;;;;4969880;28;20105;-93
2022/09/18 05:54:26;;;;;;;7.35;1.23;;;10.90;99.90;;;;;;4970449;28;20295;-91
2022/09/18 05:56:52;;;;;;;11.25;2.10;;;10.90;99.90;;;;;;4971488;28;20054;-92
2022/09/18 05:59:18;;;;;;;7.57;1.83;;;11.00;99.90;;;;;;4967979;28;20233;-91
2022/09/18 06:01:44;;;;;;;3.95;0.75;;;10.90;99.90;;;;;;4994766;28;20047;-91
2022/09/18 06:04:10;;;;;;;4.18;1.10;;;10.90;99.90;;;;;;4969870;28;20114;-91
2022/09/18 06:06:36;;;;;;;6.22;1.20;;;11.00;99.90;;;;;;4969239;28;20035;-90
2022/09/18 06:09:02;;;;;;;4.32;1.33;;;11.10;99.90;;;;;;4968689;28;20149;-90
2022/09/18 06:11:27;;;;;;;6.47;1.23;;;11.00;99.90;;;;;;4969000;28;20392;-90
2022/09/18 06:13:53;;;;;;;8.13;1.10;;;11.20;99.90;;;;;;4972348;28;20050;-90
2022/09/18 06:16:19;;;;;;;2.90;1.00;;;11.00;99.90;;;;;;4966406;28;20046;-92
2022/09/18 06:18:48;;;;;;;6.85;1.40;;;11.10;99.90;;;;;;4991359;28;20084;-92
2022/09/18 06:21:13;;;;;;;5.90;1.33;;;11.10;99.90;;;;;;4987513;28;20049;-91
2022/09/18 06:23:39;;;;;;;10.27;1.63;;;11.00;99.90;;;;;;5010888;28;20052;-91
2022/09/18 06:26:06;;;;;;;5.50;1.40;;;11.00;99.90;;;;;;4970545;28;20097;-89
2022/09/18 06:28:33;;;;;;;6.18;1.23;;;11.10;99.90;;;;;;4970830;28;20092;-90
2022/09/18 06:30:59;;;;;;;7.25;1.30;;;11.10;99.90;;;;;;4973913;28;20467;-91
2022/09/18 06:33:26;;;;;;;7.93;1.27;;;11.20;99.90;;;;;;4967387;28;20049;-90
2022/09/18 06:35:51;;;;;;;8.45;1.35;;;11.10;99.90;;;;;;4969235;28;20086;-92
2022/09/18 06:38:17;;;;;;;6.13;1.30;;;11.20;99.90;;;;;;4970069;28;20034;-92
2022/09/18 06:40:51;;;;;;;7.55;1.10;;;11.10;99.90;;;;;;4964690;28;20045;-91
2022/09/18 06:43:17;;;;;;;6.05;1.10;;;11.30;99.90;;;;;;4972271;28;20050;-91
2022/09/18 06:45:43;;;;;;;9.63;1.55;;;11.30;99.90;;;;;;4966644;28;20038;-91
2022/09/18 06:48:09;;;;;;;8.07;1.80;;;11.20;99.90;;;;;;4988311;28;20031;-92
2022/09/18 06:50:37;;;;;;;7.47;1.85;;;11.40;99.90;;;;;;4972068;28;20077;-92
2022/09/18 06:53:06;;;;;;;10.73;1.63;;;11.30;99.90;;;;;;4966834;28;20417;-91
2022/09/18 06:55:32;;;;;;;8.43;1.40;;;11.50;99.90;;;;;;4969768;28;20034;-93
2022/09/18 06:57:59;;;;;;;6.20;1.35;;;11.50;99.90;;;;;;4970195;28;20387;-92
2022/09/18 07:00:25;;;;;;;6.18;1.38;;;11.50;99.90;;;;;;4967440;28;20255;-93
2022/09/18 07:02:59;;;;;;;8.43;1.50;;;11.40;99.90;;;;;;4995017;28;20520;-93
2022/09/18 07:05:27;;;;;;;8.48;1.40;;;11.40;99.90;;;;;;4967221;28;20042;-93
2022/09/18 07:07:53;;;;;;;11.10;1.60;;;11.50;99.90;;;;;;4972060;28;20030;-93
2022/09/18 07:10:19;;;;;;;5.75;1.90;;;11.50;99.90;;;;;;4969686;28;20421;-93
2022/09/18 07:12:47;;;;;;;6.82;1.63;;;11.40;99.90;;;;;;4971717;28;20045;-90
2022/09/18 07:15:15;;;;;;;11.23;1.42;;;11.40;99.90;;;;;;4967481;28;20038;-91
2022/09/18 07:17:41;;;;;;;6.75;1.60;;;11.30;99.90;;;;;;4973137;28;20529;-92
2022/09/18 07:20:08;;;;;;;10.05;1.52;;;11.50;99.90;;;;;;4970608;28;20039;-91
2022/09/18 07:22:34;;;;;;;8.32;1.27;;;11.40;99.90;;;;;;4972426;28;20502;-93
2022/09/18 07:25:00;;;;;;;5.93;1.50;;;11.50;99.90;;;;;;4972657;28;20053;-93
2022/09/18 07:27:27;;;;;;;7.75;1.48;;;11.50;99.90;;;;;;4978035;28;20458;-92
2022/09/18 07:29:53;;;;;;;7.35;1.27;;;11.50;99.90;;;;;;4971506;28;20513;-91
2022/09/18 07:32:20;;;;;;;5.75;1.33;;;11.50;99.90;;;;;;4973360;28;20038;-94
2022/09/18 07:34:46;;;;;;;10.10;1.45;;;11.60;99.90;;;;;;4975183;28;20117;-90
2022/09/18 07:37:12;;;;;;;6.68;1.40;;;11.50;99.90;;;;;;4971049;28;20183;-90
2022/09/18 07:39:44;;;;;;;8.00;1.73;;;11.40;99.90;;;;;;4970498;28;20061;-90
2022/09/18 07:42:10;;;;;;;5.47;1.33;;;11.30;99.90;;;;;;4966984;28;20050;-89
2022/09/18 07:44:36;;;;;;;3.55;1.42;;;11.30;99.90;;;;;;4971535;28;20146;-92
2022/09/18 07:47:02;;;;;;;6.70;1.30;;;11.40;99.90;;;;;;5000402;28;20075;-90
2022/09/18 07:49:28;;;;;;;7.88;1.40;;;11.40;99.90;;;;;;4996786;28;20041;-90
2022/09/18 07:51:54;;;;;;;5.90;1.23;;;11.50;99.90;;;;;;4972839;28;20061;-90
2022/09/18 07:54:19;;;;;;;8.35;1.52;;;11.20;99.90;;;;;;4973258;28;20052;-90
2022/09/18 07:56:48;;;;;;;7.43;1.45;;;11.30;99.90;;;;;;4971665;28;20050;-90
2022/09/18 07:59:14;;;;;;;5.80;1.60;;;11.40;99.90;;;;;;4973474;28;20278;-90
2022/09/18 08:01:40;;;;;;;8.38;1.50;;;11.40;99.90;;;;;;4971112;28;20513;-91
2022/09/18 08:04:05;;;;;;;6.32;1.35;;;11.30;99.90;;;;;;4974682;28;20045;-91
2022/09/18 08:06:31;;;;;;;4.72;1.20;;;11.50;99.90;;;;;;4974495;28;20049;-89
2022/09/18 08:09:03;;;;;;;4.47;1.38;;;11.50;99.90;;;;;;4970111;28;20043;-90
2022/09/18 08:11:29;;;;;;;7.65;1.40;;;11.40;99.90;;;;;;4973282;28;20046;-89
2022/09/18 08:13:54;;;;;;;6.32;1.35;;;11.50;99.90;;;;;;4974057;28;20158;-91
2022/09/18 08:16:20;;;;;;;6.38;1.27;;;11.50;99.90;;;;;;4967588;28;20047;-91
2022/09/18 08:18:46;;;;;;;5.25;1.20;;;11.40;99.90;;;;;;4975512;28;20042;-90
2022/09/18 08:21:12;;;;;;;5.00;1.10;;;11.60;99.90;;;;;;4971147;28;20406;-89
2022/09/18 08:23:38;;;;;;;7.32;1.52;;;11.50;99.90;;;;;;4972440;28;20042;-90
2022/09/18 08:29:35;;;;;;;2.63;1.17;;;11.50;99.90;;;;;;5014634;28;20438;-91
2022/09/18 08:32:01;;;;;;;6.40;1.58;;;11.60;99.90;;;;;;4985714;28;20397;-88
2022/09/18 08:34:30;;;;;;;8.15;1.58;;;11.50;99.90;;;;;;4971691;28;20034;-90
2022/09/18 08:36:55;;;;;;;4.47;1.25;;;11.60;99.90;;;;;;5015684;28;20046;-91
2022/09/18 08:39:21;;;;;;;5.93;1.88;;;11.50;99.90;;;;;;4977056;28;20030;-91
2022/09/18 08:42:28;;;;;;;5.45;1.00;;;11.40;99.90;;;;;;4983250;28;20074;-92
2022/09/18 08:45:04;;;;;;;6.38;1.13;;;11.60;99.90;;;;;;4986342;28;20038;-90
2022/09/18 08:47:47;;;;;;;4.03;1.08;;;11.60;99.90;;;;;;4976127;28;20061;-89
2022/09/18 08:50:55;;;;;;;6.40;1.20;;;11.40;99.90;;;;;;4973825;28;20045;-88
2022/09/18 08:53:50;;;;;;;7.70;1.33;;;11.40;99.90;;;;;;4978330;28;20109;-90
2022/09/18 08:56:20;;;;;;;6.43;1.40;;;11.40;99.90;;;;;;4996889;28;20130;-88
2022/09/18 08:58:59;;;;;;;3.08;0.88;;;11.30;99.90;;;;;;5001708;28;20501;-89
2022/09/18 09:02:08;;;;;;;5.03;0.90;;;11.30;99.90;;;;;;4989541;28;20045;-89
2022/09/18 09:04:42;;;;;;;4.47;0.90;;;11.30;99.90;;;;;;5001381;28;20089;-88
2022/09/18 09:07:41;;;;;;;4.20;0.77;;;11.60;99.90;;;;;;4973756;28;20065;-90
2022/09/18 09:10:35;;;;;;;6.13;1.02;;;11.60;99.90;;;;;;4972514;28;20084;-90
2022/09/18 09:13:41;;;;;;;4.22;0.80;;;11.40;99.90;;;;;;5014346;28;20094;-92
2022/09/18 09:16:06;;;;;;;4.07;0.73;;;11.60;99.90;;;;;;5004590;28;20542;-90
2022/09/18 09:18:42;;;;;;;5.15;1.00;;;11.50;99.90;;;;;;4994825;28;20133;-89
2022/09/18 09:21:23;;;;;;;5.40;1.48;;;11.40;99.90;;;;;;4974834;28;20037;-90
2022/09/18 09:24:23;;;;;;;5.25;1.15;;;11.50;99.90;;;;;;4972756;28;20121;-89
2022/09/18 09:27:05;;;;;;;5.80;1.20;;;11.40;99.90;;;;;;4999767;28;20051;-88
2022/09/18 09:36:52;;;;;;;4.70;1.20;;;11.40;99.90;;;;;;4932223;28;20522;-89
2022/09/18 09:43:02;;;;;;;3.83;1.23;;;11.20;99.90;;;;;;4945738;28;20044;-88
2022/09/18 09:45:52;;;;;;;5.90;1.23;;;11.20;99.90;;;;;;4936464;28;20053;-90
2022/09/18 09:52:59;;;;;;;5.85;1.27;;;11.20;99.90;;;;;;4918616;29;20073;-91
2022/09/18 09:56:05;;;;;;;6.35;1.50;;;11.30;99.90;;;;;;4858502;29;20043;-92
2022/09/18 09:58:52;;;;;;;10.50;1.58;;;11.50;99.90;;;;;;4886511;29;20085;-91
2022/09/18 10:01:28;;;;;;;7.88;1.95;;;11.40;99.90;;;;;;4894409;29;20049;-92
2022/09/18 10:04:31;;;;;;;6.22;1.40;;;11.50;99.90;;;;;;4879843;29;20060;-92
2022/09/18 10:11:07;;;;;;;5.70;1.60;;;11.40;99.90;;;;;;4901356;29;20094;-91
2022/09/18 10:13:54;;;;;;;6.28;0.95;;;11.60;99.90;;;;;;4893943;29;20118;-92
2022/09/18 10:16:44;;;;;;;3.17;1.05;;;11.60;99.90;;;;;;4931603;28;20569;-94
2022/09/18 10:19:17;;;;;;;5.80;1.23;;;11.60;99.90;;;;;;4964259;28;20042;-94
2022/09/18 10:22:25;;;;;;;4.38;1.10;;;11.80;99.90;;;;;;4961485;28;20057;-93
2022/09/18 10:25:30;;;;;;;6.63;1.38;;;12.00;99.90;;;;;;4984995;28;20348;-92
2022/09/18 10:28:28;;;;;;;6.75;1.52;;;11.90;99.90;;;;;;4962285;28;20493;-93
2022/09/18 10:31:29;;;;;;;6.85;1.48;;;11.80;99.90;;;;;;4958591;28;20403;-95
2022/09/18 10:34:03;;;;;;;4.75;1.30;;;11.80;99.90;;;;;;4954610;28;20041;-95
2022/09/18 10:36:37;;;;;;;5.97;1.40;;;11.90;99.90;;;;;;4942713;28;20050;-93
2022/09/18 10:39:28;;;;;;;7.03;1.30;;;11.80;99.90;;;;;;4946636;28;20442;-93
2022/09/18 10:42:04;;;;;;;8.98;1.52;;;11.90;99.90;;;;;;4970392;28;20039;-95
2022/09/18 10:44:40;;;;;;;6.78;1.70;;;12.20;99.90;;;;;;4943239;28;20277;-94
2022/09/18 10:47:11;;;;;;;8.05;1.55;;;12.20;99.90;;;;;;4958934;28;20038;-93
2022/09/18 10:49:48;;;;;;;8.05;1.58;;;12.20;99.90;;;;;;4948317;28;20035;-93
2022/09/18 10:52:35;;;;;;;9.10;1.55;;;12.10;99.90;;;;;;4953736;28;20098;-93
2022/09/18 10:55:04;;;;;;;8.23;1.55;;;12.20;99.90;;;;;;4948153;28;20493;-92
2022/09/18 10:57:53;;;;;;;5.70;1.48;;;12.50;99.90;;;;;;4951425;28;20047;-94
2022/09/18 11:00:23;;;;;;;9.63;1.83;;;12.50;99.90;;;;;;4937949;28;20059;-94
2022/09/18 11:03:00;;;;;;;6.05;1.52;;;12.50;99.90;;;;;;4945581;28;20617;-93
2022/09/18 11:05:34;;;;;;;5.57;1.10;;;12.60;99.90;;;;;;4944701;28;20130;-94
2022/09/18 11:08:04;;;;;;;4.60;1.23;;;12.60;99.90;;;;;;4947142;28;20046;-93
2022/09/18 11:10:31;;;;;;;7.35;1.38;;;12.70;99.90;;;;;;4950856;28;20240;-94
2022/09/18 11:13:00;;;;;;;6.90;1.65;;;12.80;99.90;;;;;;4946857;28;20058;-93
2022/09/18 11:15:55;;;;;;;10.15;1.70;;;13.00;99.90;;;;;;4942626;28;20642;-93
2022/09/18 11:18:25;;;;;;;6.05;1.45;;;13.10;99.90;;;;;;4946257;28;20620;-93
2022/09/18 11:20:54;;;;;;;9.45;2.00;;;13.10;99.90;;;;;;4946197;28;20396;-92
2022/09/18 11:23:31;;;;;;;12.05;2.50;;;13.20;99.90;;;;;;4948637;28;20066;-93
2022/09/18 11:26:20;;;;;;;7.85;2.00;;;13.20;99.90;;;;;;4974735;28;20070;-94
2022/09/18 11:29:30;;;;;;;6.78;1.80;;;13.50;99.90;;;;;;4947691;28;20050;-95
2022/09/18 11:32:10;;;;;;;13.35;1.98;;;13.50;99.90;;;;;;4941867;28;20054;-94
2022/09/18 11:34:43;;;;;;;10.55;1.85;;;13.50;99.90;;;;;;4968247;28;20043;-94
2022/09/18 11:37:13;;;;;;;9.30;2.22;;;13.70;99.90;;;;;;4949008;28;20069;-92
2022/09/18 11:39:43;;;;;;;10.57;1.63;;;13.80;99.90;;;;;;4974399;28;20122;-93
2022/09/18 11:42:12;;;;;;;5.07;1.42;;;13.80;99.90;;;;;;4948775;28;20035;-92
2022/09/18 11:44:39;;;;;;;10.63;2.13;;;13.80;99.90;;;;;;4959839;28;20059;-93
2022/09/18 11:47:29;;;;;;;9.52;2.05;;;13.80;99.90;;;;;;4944601;28;20148;-94
2022/09/18 11:50:11;;;;;;;11.00;1.60;;;14.20;99.90;;;;;;4944227;28;20053;-93
2022/09/18 11:52:44;;;;;;;8.82;1.58;;;14.10;99.90;;;;;;4948806;28;20126;-93
2022/09/18 11:55:34;;;;;;;8.18;2.45;;;14.00;99.90;;;;;;4943635;28;20035;-93
2022/09/18 11:58:04;;;;;;;7.57;1.83;;;14.00;99.90;;;;;;4963195;28;20086;-93
2022/09/18 12:01:00;;;;;;;8.98;2.35;;;14.10;99.90;;;;;;4978262;28;20135;-93
2022/09/18 12:03:33;;;;;;;7.35;1.80;;;13.90;99.90;;;;;;4938919;28;20042;-93
2022/09/18 12:06:22;;;;;;;8.52;2.10;;;14.20;99.90;;;;;;4950235;28;20081;-94
2022/09/18 12:09:02;;;;;;;6.28;1.95;;;14.10;99.90;;;;;;4955205;28;20035;-93
2022/09/18 12:11:43;;;;;;;4.90;1.60;;;14.20;99.90;;;;;;4951919;28;20500;-94
2022/09/18 12:14:28;;;;;;;7.07;1.60;;;14.00;99.90;;;;;;4978796;28;20133;-93
2022/09/18 12:17:13;;;;;;;10.15;2.08;;;14.10;99.90;;;;;;4949240;28;20046;-93
2022/09/18 12:19:48;;;;;;;7.45;1.63;;;14.00;1.00;;;;;;4952042;28;20054;-93
2022/09/18 12:22:16;;;;;;;7.05;1.40;;;14.10;99.90;;;;;;4953054;28;20201;-95
2022/09/18 12:24:42;;;;;;;9.50;1.67;;;14.00;99.90;;;;;;4954707;28;20050;-92
2022/09/18 12:27:30;;;;;;;9.73;2.15;;;14.10;1.00;;;;;;4962785;28;20053;-94
2022/09/18 12:29:58;;;;;;;6.82;1.60;;;14.10;99.90;;;;;;4982226;28;20047;-93
2022/09/18 12:33:04;;;;;;;5.57;1.48;;;14.20;1.00;;;;;;4972304;28;20228;-94
2022/09/18 12:35:51;;;;;;;11.13;1.95;;;14.20;1.00;;;;;;4970033;28;20073;-94
2022/09/18 12:38:43;;;;;;;8.07;1.63;;;14.20;99.90;;;;;;4970536;28;20142;-92
2022/09/18 12:41:37;;;;;;;5.45;1.00;;;14.10;99.90;;;;;;4971736;28;20083;-93
2022/09/18 12:44:12;;;;;;;9.82;1.42;;;14.00;99.90;;;;;;4972508;28;20047;-93
2022/09/18 12:46:58;;;;;;;9.55;1.45;;;14.00;71.60;;;;;;4972354;28;20046;-94
2022/09/18 12:49:43;;;;;;;9.43;1.63;;;14.00;1.00;;;;;;4966902;28;20097;-93
2022/09/18 12:52:46;;;;;;;5.07;1.00;;;13.90;99.90;;;;;;5001177;28;20034;-92
2022/09/18 12:55:30;;;;;;;6.28;1.48;;;13.90;99.90;;;;;;4973766;28;20037;-93
2022/09/18 12:58:05;;;;;;;4.30;1.08;;;14.10;99.90;;;;;;5014059;28;20043;-93
2022/09/18 13:00:33;;;;;;;4.68;1.05;;;14.00;99.90;;;;;;5012109;28;20034;-94
2022/09/18 13:03:11;;;;;;;7.70;1.25;;;14.10;99.90;;;;;;4976445;28;20056;-94
2022/09/18 13:05:39;;;;;;;6.15;1.20;;;14.00;99.90;;;;;;4981902;28;20058;-93
2022/09/18 13:08:23;;;;;;;5.57;1.10;;;14.10;99.90;;;;;;4974506;28;20112;-95
2022/09/18 13:10:54;;;;;;;6.53;1.20;;;14.00;99.90;;;;;;5017757;28;20045;-94
2022/09/18 13:13:35;;;;;;;4.15;1.25;;;14.10;99.90;;;;;;4971795;28;20076;-95
2022/09/18 13:16:09;;;;;;;5.88;1.25;;;14.10;1.00;;;;;;4967641;28;20106;-94
2022/09/18 13:18:51;;;;;;;8.98;1.40;;;14.20;99.90;;;;;;4996741;28;20393;-95
2022/09/18 13:21:28;;;;;;;8.30;1.33;;;14.20;99.90;;;;;;5000942;28;20121;-95
2022/09/18 13:23:55;;;;;;;4.65;0.88;;;14.30;99.90;;;;;;4973559;28;20038;-93
2022/09/18 13:26:25;;;;;;;9.90;1.33;;;14.30;99.90;;;;;;4969814;28;20048;-94
2022/09/18 13:28:50;;;;;;;8.90;1.55;;;14.30;99.90;;;;;;4973084;28;20126;-95
2022/09/18 13:31:31;;;;;;;8.85;1.42;;;14.40;99.90;;;;;;4972524;28;20415;-94
2022/09/18 13:34:15;;;;;;;7.22;1.60;;;14.40;94.40;;;;;;4975544;28;20050;-94
2022/09/18 13:36:43;;;;;;;4.47;1.38;;;14.10;99.90;;;;;;4971462;28;20042;-94
2022/09/18 13:39:31;;;;;;;6.25;1.17;;;14.10;8.90;;;;;;4978174;28;20050;-93
2022/09/18 13:42:00;;;;;;;5.40;1.50;;;14.00;99.90;;;;;;4986077;28;20045;-94